MSSS/SAL METAR and TAF weather

Enter ICAO airport designator
Station Type Date Time Source
MSSS METAR 2019/04/23 03:50 UTC NOAA

MSSS 230350Z 17007KT CAVOK 25/21 Q1016 A3002


Station Type Date Time Source
MSSS Decoded METAR 2019/04/23 03:50 UTC NOAA

San Salvador / Ilopango, El Salvador (MSSS) 13-42N 089-07W 621M
Apr 22, 2019 - 11:50 PM EDT / 2019.04.23 0350 UTC
Wind: from the S (170 degrees) at 8 MPH (7 KT):0
Visibility: greater than 7 mile(s):0
Temperature: 77 F (25 C)
Dew Point: 69 F (21 C)
Relative Humidity: 78%
Pressure (altimeter): 30.02 in. Hg (1016 hPa)
ob: MSSS 230350Z 17007KT CAVOK 25/21 Q1016 A3002
cycle: 4

Station Type Date Time Source
MSSS TAF 2019/04/23 06:36 UTC NOAA

TAF MSSS 230325Z 2306/2406 34003KT 9999 SCT047 TX31/2320Z TN21/2312Z
FM231200 35006KT CAVOK
FM231800 18010KT 9999 SCT040

Example: see airport list